sensor_id;sensor_type;location;lat;lon;timestamp;temperature;humidity
10692;DHT22;5396;50.950;6.988;2022-11-20T00:00:06;3.50;99.90
10692;DHT22;5396;50.950;6.988;2022-11-20T00:02:32;3.50;99.90
10692;DHT22;5396;50.950;6.988;2022-11-20T00:04:58;3.50;99.90
10692;DHT22;5396;50.950;6.988;2022-11-20T00:07:23;3.50;99.90
10692;DHT22;5396;50.950;6.988;2022-11-20T00:09:49;3.50;99.90
10692;DHT22;5396;50.950;6.988;2022-11-20T00:12:14;3.60;99.90
10692;DHT22;5396;50.950;6.988;2022-11-20T00:14:41;3.60;99.90
10692;DHT22;5396;50.950;6.988;2022-11-20T00:17:06;3.60;99.90
10692;DHT22;5396;50.950;6.988;2022-11-20T00:19:32;3.50;99.90
10692;DHT22;5396;50.950;6.988;2022-11-20T00:21:58;3.50;99.90
10692;DHT22;5396;50.950;6.988;2022-11-20T00:24:23;3.50;99.90
10692;DHT22;5396;50.950;6.988;2022-11-20T00:26:49;3.60;99.90
10692;DHT22;5396;50.950;6.988;2022-11-20T00:29:14;3.60;99.90
10692;DHT22;5396;50.950;6.988;2022-11-20T00:31:40;3.60;99.90
10692;DHT22;5396;50.950;6.988;2022-11-20T00:34:06;3.60;99.90
10692;DHT22;5396;50.950;6.988;2022-11-20T00:36:33;3.60;99.90
10692;DHT22;5396;50.950;6.988;2022-11-20T00:38:59;3.50;99.90
10692;DHT22;5396;50.950;6.988;2022-11-20T00:41:27;3.50;99.90
10692;DHT22;5396;50.950;6.988;2022-11-20T00:43:54;3.50;99.90
10692;DHT22;5396;50.950;6.988;2022-11-20T00:46:22;3.50;99.90
10692;DHT22;5396;50.950;6.988;2022-11-20T00:48:48;3.40;99.90
10692;DHT22;5396;50.950;6.988;2022-11-20T00:51:16;3.50;99.90
10692;DHT22;5396;50.950;6.988;2022-11-20T00:53:42;3.40;99.90
10692;DHT22;5396;50.950;6.988;2022-11-20T00:56:10;3.40;99.90
10692;DHT22;5396;50.950;6.988;2022-11-20T00:58:38;3.40;99.90
10692;DHT22;5396;50.950;6.988;2022-11-20T01:03:41;3.30;99.90
10692;DHT22;5396;50.950;6.988;2022-11-20T01:06:14;3.40;99.90
10692;DHT22;5396;50.950;6.988;2022-11-20T01:08:40;3.40;99.90
10692;DHT22;5396;50.950;6.988;2022-11-20T01:11:08;3.30;99.90
10692;DHT22;5396;50.950;6.988;2022-11-20T01:13:35;3.40;99.90
10692;DHT22;5396;50.950;6.988;2022-11-20T01:16:09;3.40;99.90
10692;DHT22;5396;50.950;6.988;2022-11-20T01:18:36;3.50;99.90
10692;DHT22;5396;50.950;6.988;2022-11-20T01:21:10;3.50;99.90
10692;DHT22;5396;50.950;6.988;2022-11-20T01:23:38;3.50;99.90
10692;DHT22;5396;50.950;6.988;2022-11-20T01:26:06;3.50;99.90
10692;DHT22;5396;50.950;6.988;2022-11-20T01:28:32;3.50;99.90
10692;DHT22;5396;50.950;6.988;2022-11-20T01:30:58;3.50;99.90
10692;DHT22;5396;50.950;6.988;2022-11-20T01:33:25;3.50;99.90
10692;DHT22;5396;50.950;6.988;2022-11-20T01:35:51;3.60;99.90
10692;DHT22;5396;50.950;6.988;2022-11-20T01:38:16;3.50;99.90
10692;DHT22;5396;50.950;6.988;2022-11-20T01:40:42;3.60;99.90
10692;DHT22;5396;50.950;6.988;2022-11-20T01:43:17;3.60;99.90
10692;DHT22;5396;50.950;6.988;2022-11-20T01:45:59;3.50;99.90
10692;DHT22;5396;50.950;6.988;2022-11-20T01:48:33;3.60;99.90
10692;DHT22;5396;50.950;6.988;2022-11-20T01:51:00;3.60;99.90
10692;DHT22;5396;50.950;6.988;2022-11-20T01:53:31;3.60;99.90
10692;DHT22;5396;50.950;6.988;2022-11-20T01:55:59;3.50;99.90
10692;DHT22;5396;50.950;6.988;2022-11-20T01:58:33;3.50;99.90
10692;DHT22;5396;50.950;6.988;2022-11-20T02:01:00;3.60;99.90
10692;DHT22;5396;50.950;6.988;2022-11-20T02:03:27;3.60;99.90
10692;DHT22;5396;50.950;6.988;2022-11-20T02:06:52;3.60;99.90
10692;DHT22;5396;50.950;6.988;2022-11-20T02:08:53;3.60;99.90
10692;DHT22;5396;50.950;6.988;2022-11-20T02:11:19;3.60;99.90
10692;DHT22;5396;50.950;6.988;2022-11-20T02:13:45;3.70;99.90
10692;DHT22;5396;50.950;6.988;2022-11-20T02:16:20;3.60;99.90
10692;DHT22;5396;50.950;6.988;2022-11-20T02:18:47;3.60;99.90
10692;DHT22;5396;50.950;6.988;2022-11-20T02:21:14;3.60;99.90
10692;DHT22;5396;50.950;6.988;2022-11-20T02:24:06;3.60;99.90
10692;DHT22;5396;50.950;6.988;2022-11-20T02:26:43;3.50;99.90
10692;DHT22;5396;50.950;6.988;2022-11-20T02:29:09;3.50;99.90
10692;DHT22;5396;50.950;6.988;2022-11-20T02:31:40;3.50;99.90
10692;DHT22;5396;50.950;6.988;2022-11-20T02:34:07;3.50;99.90
10692;DHT22;5396;50.950;6.988;2022-11-20T02:36:34;3.50;99.90
10692;DHT22;5396;50.950;6.988;2022-11-20T02:39:01;3.50;99.90
10692;DHT22;5396;50.950;6.988;2022-11-20T02:41:34;3.50;99.90
10692;DHT22;5396;50.950;6.988;2022-11-20T02:44:00;3.60;99.90
10692;DHT22;5396;50.950;6.988;2022-11-20T02:46:26;3.60;99.90
10692;DHT22;5396;50.950;6.988;2022-11-20T02:48:52;3.50;99.90
10692;DHT22;5396;50.950;6.988;2022-11-20T02:51:17;3.50;99.90
10692;DHT22;5396;50.950;6.988;2022-11-20T02:53:43;3.50;99.90
10692;DHT22;5396;50.950;6.988;2022-11-20T02:56:08;3.60;99.90
10692;DHT22;5396;50.950;6.988;2022-11-20T02:58:34;3.60;99.90
10692;DHT22;5396;50.950;6.988;2022-11-20T03:00:59;3.50;99.90
10692;DHT22;5396;50.950;6.988;2022-11-20T03:03:25;3.50;99.90
10692;DHT22;5396;50.950;6.988;2022-11-20T03:05:51;3.50;99.90
10692;DHT22;5396;50.950;6.988;2022-11-20T03:08:16;3.50;99.90
10692;DHT22;5396;50.950;6.988;2022-11-20T03:10:42;3.50;99.90
10692;DHT22;5396;50.950;6.988;2022-11-20T03:13:07;3.40;99.90
10692;DHT22;5396;50.950;6.988;2022-11-20T03:15:33;3.40;99.90
10692;DHT22;5396;50.950;6.988;2022-11-20T03:17:58;3.40;99.90
10692;DHT22;5396;50.950;6.988;2022-11-20T03:20:24;3.40;99.90
10692;DHT22;5396;50.950;6.988;2022-11-20T03:22:50;3.40;99.90
10692;DHT22;5396;50.950;6.988;2022-11-20T03:25:15;3.40;99.90
10692;DHT22;5396;50.950;6.988;2022-11-20T03:27:41;3.40;99.90
10692;DHT22;5396;50.950;6.988;2022-11-20T03:30:07;3.40;99.90
10692;DHT22;5396;50.950;6.988;2022-11-20T03:32:33;3.40;99.90
10692;DHT22;5396;50.950;6.988;2022-11-20T03:34:58;3.40;99.90
10692;DHT22;5396;50.950;6.988;2022-11-20T03:37:24;3.40;99.90
10692;DHT22;5396;50.950;6.988;2022-11-20T03:39:50;3.40;99.90
10692;DHT22;5396;50.950;6.988;2022-11-20T03:42:15;3.40;99.90
10692;DHT22;5396;50.950;6.988;2022-11-20T03:44:59;3.40;99.90
10692;DHT22;5396;50.950;6.988;2022-11-20T03:47:25;3.40;99.90
10692;DHT22;5396;50.950;6.988;2022-11-20T03:49:51;3.40;99.90
10692;DHT22;5396;50.950;6.988;2022-11-20T03:52:17;3.40;99.90
10692;DHT22;5396;50.950;6.988;2022-11-20T03:54:43;3.40;99.90
10692;DHT22;5396;50.950;6.988;2022-11-20T03:57:08;3.40;99.90
10692;DHT22;5396;50.950;6.988;2022-11-20T03:59:34;3.40;99.90
10692;DHT22;5396;50.950;6.988;2022-11-20T04:01:59;3.40;99.90
10692;DHT22;5396;50.950;6.988;2022-11-20T04:04:25;3.40;99.90
10692;DHT22;5396;50.950;6.988;2022-11-20T04:06:50;3.40;99.90
10692;DHT22;5396;50.950;6.988;2022-11-20T04:09:16;3.50;99.90
10692;DHT22;5396;50.950;6.988;2022-11-20T04:11:41;3.50;99.90
10692;DHT22;5396;50.950;6.988;2022-11-20T04:14:13;3.40;99.90
10692;DHT22;5396;50.950;6.988;2022-11-20T04:16:39;3.40;99.90
10692;DHT22;5396;50.950;6.988;2022-11-20T04:19:09;3.40;99.90
10692;DHT22;5396;50.950;6.988;2022-11-20T04:21:35;3.40;99.90
10692;DHT22;5396;50.950;6.988;2022-11-20T04:24:01;3.30;99.90
10692;DHT22;5396;50.950;6.988;2022-11-20T04:26:28;3.20;99.90
10692;DHT22;5396;50.950;6.988;2022-11-20T04:28:54;3.10;99.90
10692;DHT22;5396;50.950;6.988;2022-11-20T04:31:27;3.00;99.90
10692;DHT22;5396;50.950;6.988;2022-11-20T04:33:53;3.00;99.90
10692;DHT22;5396;50.950;6.988;2022-11-20T04:36:24;2.90;99.90
10692;DHT22;5396;50.950;6.988;2022-11-20T04:38:52;2.90;99.90
10692;DHT22;5396;50.950;6.988;2022-11-20T04:41:20;2.80;99.90
10692;DHT22;5396;50.950;6.988;2022-11-20T04:43:51;2.90;99.90
10692;DHT22;5396;50.950;6.988;2022-11-20T04:46:18;2.90;99.90
10692;DHT22;5396;50.950;6.988;2022-11-20T04:48:44;2.80;99.90
10692;DHT22;5396;50.950;6.988;2022-11-20T04:51:10;2.90;99.90
10692;DHT22;5396;50.950;6.988;2022-11-20T04:53:37;2.90;99.90
10692;DHT22;5396;50.950;6.988;2022-11-20T04:56:06;2.90;99.90
10692;DHT22;5396;50.950;6.988;2022-11-20T04:58:32;2.80;99.90
10692;DHT22;5396;50.950;6.988;2022-11-20T05:01:10;2.80;99.90
10692;DHT22;5396;50.950;6.988;2022-11-20T05:03:36;2.80;99.90
10692;DHT22;5396;50.950;6.988;2022-11-20T05:06:03;2.90;99.90
10692;DHT22;5396;50.950;6.988;2022-11-20T05:08:30;2.90;99.90
10692;DHT22;5396;50.950;6.988;2022-11-20T05:11:10;3.00;99.90
10692;DHT22;5396;50.950;6.988;2022-11-20T05:13:36;3.10;99.90
10692;DHT22;5396;50.950;6.988;2022-11-20T05:16:07;3.10;99.90
10692;DHT22;5396;50.950;6.988;2022-11-20T05:18:34;3.20;99.90
10692;DHT22;5396;50.950;6.988;2022-11-20T05:20:59;3.30;99.90
10692;DHT22;5396;50.950;6.988;2022-11-20T05:23:26;3.30;99.90
10692;DHT22;5396;50.950;6.988;2022-11-20T05:25:53;3.40;99.90
10692;DHT22;5396;50.950;6.988;2022-11-20T05:28:19;3.40;99.90
10692;DHT22;5396;50.950;6.988;2022-11-20T05:30:45;3.40;99.90
10692;DHT22;5396;50.950;6.988;2022-11-20T05:33:11;3.50;99.90
10692;DHT22;5396;50.950;6.988;2022-11-20T05:35:36;3.40;99.90
10692;DHT22;5396;50.950;6.988;2022-11-20T05:38:02;3.50;99.90
10692;DHT22;5396;50.950;6.988;2022-11-20T05:40:27;3.50;99.90
10692;DHT22;5396;50.950;6.988;2022-11-20T05:42:53;3.50;99.90
10692;DHT22;5396;50.950;6.988;2022-11-20T05:45:18;3.50;99.90
10692;DHT22;5396;50.950;6.988;2022-11-20T05:47:44;3.50;99.90
10692;DHT22;5396;50.950;6.988;2022-11-20T05:50:10;3.50;99.90
10692;DHT22;5396;50.950;6.988;2022-11-20T05:52:35;3.60;99.90
10692;DHT22;5396;50.950;6.988;2022-11-20T05:55:01;3.50;99.90
10692;DHT22;5396;50.950;6.988;2022-11-20T05:57:27;3.50;99.90
10692;DHT22;5396;50.950;6.988;2022-11-20T05:59:52;3.50;99.90
10692;DHT22;5396;50.950;6.988;2022-11-20T06:02:18;3.50;99.90
10692;DHT22;5396;50.950;6.988;2022-11-20T06:04:43;3.60;99.90
10692;DHT22;5396;50.950;6.988;2022-11-20T06:07:09;3.50;99.90
10692;DHT22;5396;50.950;6.988;2022-11-20T06:09:35;3.50;99.90
10692;DHT22;5396;50.950;6.988;2022-11-20T06:12:00;3.50;99.90
10692;DHT22;5396;50.950;6.988;2022-11-20T06:14:26;3.50;99.90
10692;DHT22;5396;50.950;6.988;2022-11-20T06:16:51;3.50;99.90
10692;DHT22;5396;50.950;6.988;2022-11-20T06:19:17;3.50;99.90
10692;DHT22;5396;50.950;6.988;2022-11-20T06:21:42;3.40;99.90
10692;DHT22;5396;50.950;6.988;2022-11-20T06:24:11;3.40;99.90
10692;DHT22;5396;50.950;6.988;2022-11-20T06:26:37;3.40;99.90
10692;DHT22;5396;50.950;6.988;2022-11-20T06:29:03;3.30;99.90
10692;DHT22;5396;50.950;6.988;2022-11-20T06:31:28;3.30;99.90
10692;DHT22;5396;50.950;6.988;2022-11-20T06:33:54;3.30;99.90
10692;DHT22;5396;50.950;6.988;2022-11-20T06:36:22;3.20;99.90
10692;DHT22;5396;50.950;6.988;2022-11-20T06:38:48;3.20;99.90
10692;DHT22;5396;50.950;6.988;2022-11-20T06:41:16;3.10;99.90
10692;DHT22;5396;50.950;6.988;2022-11-20T06:43:42;3.10;99.90
10692;DHT22;5396;50.950;6.988;2022-11-20T06:46:10;3.10;99.90
10692;DHT22;5396;50.950;6.988;2022-11-20T06:48:36;3.10;99.90
10692;DHT22;5396;50.950;6.988;2022-11-20T06:51:06;3.10;99.90
10692;DHT22;5396;50.950;6.988;2022-11-20T06:53:32;3.10;99.90
10692;DHT22;5396;50.950;6.988;2022-11-20T06:55:57;3.20;99.90
10692;DHT22;5396;50.950;6.988;2022-11-20T06:58:26;3.20;99.90
10692;DHT22;5396;50.950;6.988;2022-11-20T07:00:52;3.20;99.90
10692;DHT22;5396;50.950;6.988;2022-11-20T07:03:17;3.30;99.90
10692;DHT22;5396;50.950;6.988;2022-11-20T07:05:43;3.30;99.90
10692;DHT22;5396;50.950;6.988;2022-11-20T07:08:10;3.30;99.90
10692;DHT22;5396;50.950;6.988;2022-11-20T07:10:36;3.30;99.90
10692;DHT22;5396;50.950;6.988;2022-11-20T07:13:02;3.30;99.90
10692;DHT22;5396;50.950;6.988;2022-11-20T07:15:27;3.30;99.90
10692;DHT22;5396;50.950;6.988;2022-11-20T07:17:53;3.40;99.90
10692;DHT22;5396;50.950;6.988;2022-11-20T07:20:19;3.40;99.90
10692;DHT22;5396;50.950;6.988;2022-11-20T07:22:44;3.40;99.90
10692;DHT22;5396;50.950;6.988;2022-11-20T07:25:10;3.30;99.90
10692;DHT22;5396;50.950;6.988;2022-11-20T07:27:36;3.40;99.90
10692;DHT22;5396;50.950;6.988;2022-11-20T07:30:03;3.40;99.90
10692;DHT22;5396;50.950;6.988;2022-11-20T07:32:29;3.40;99.90
10692;DHT22;5396;50.950;6.988;2022-11-20T07:34:54;3.50;99.90
10692;DHT22;5396;50.950;6.988;2022-11-20T07:37:20;3.60;99.90
10692;DHT22;5396;50.950;6.988;2022-11-20T07:39:46;3.60;99.90
10692;DHT22;5396;50.950;6.988;2022-11-20T07:42:11;3.70;99.90
10692;DHT22;5396;50.950;6.988;2022-11-20T07:44:40;3.70;99.90
10692;DHT22;5396;50.950;6.988;2022-11-20T07:47:05;3.80;99.90
10692;DHT22;5396;50.950;6.988;2022-11-20T07:49:31;3.80;99.90
10692;DHT22;5396;50.950;6.988;2022-11-20T07:51:56;3.80;99.90
10692;DHT22;5396;50.950;6.988;2022-11-20T07:54:22;3.90;99.90
10692;DHT22;5396;50.950;6.988;2022-11-20T07:56:48;4.00;99.90
10692;DHT22;5396;50.950;6.988;2022-11-20T07:59:15;4.00;99.90
10692;DHT22;5396;50.950;6.988;2022-11-20T08:01:43;4.00;99.90
10692;DHT22;5396;50.950;6.988;2022-11-20T08:04:09;4.10;99.90
10692;DHT22;5396;50.950;6.988;2022-11-20T08:06:36;4.10;99.90
10692;DHT22;5396;50.950;6.988;2022-11-20T08:09:02;4.20;99.90
10692;DHT22;5396;50.950;6.988;2022-11-20T08:11:27;4.20;99.90
10692;DHT22;5396;50.950;6.988;2022-11-20T08:14:12;4.30;99.90
10692;DHT22;5396;50.950;6.988;2022-11-20T08:16:39;4.30;99.90
10692;DHT22;5396;50.950;6.988;2022-11-20T08:19:04;4.30;99.90
10692;DHT22;5396;50.950;6.988;2022-11-20T08:21:30;4.40;99.90
10692;DHT22;5396;50.950;6.988;2022-11-20T08:23:57;4.30;99.90
10692;DHT22;5396;50.950;6.988;2022-11-20T08:26:23;4.40;99.90
10692;DHT22;5396;50.950;6.988;2022-11-20T08:28:52;4.40;99.90
10692;DHT22;5396;50.950;6.988;2022-11-20T08:31:18;4.40;99.90
10692;DHT22;5396;50.950;6.988;2022-11-20T08:33:44;4.40;99.90
10692;DHT22;5396;50.950;6.988;2022-11-20T08:36:10;4.50;99.90
10692;DHT22;5396;50.950;6.988;2022-11-20T08:38:35;4.50;99.90
10692;DHT22;5396;50.950;6.988;2022-11-20T08:41:03;4.50;99.90
10692;DHT22;5396;50.950;6.988;2022-11-20T08:43:48;4.60;99.90
10692;DHT22;5396;50.950;6.988;2022-11-20T08:46:14;4.60;99.90
10692;DHT22;5396;50.950;6.988;2022-11-20T08:48:39;4.60;99.90
10692;DHT22;5396;50.950;6.988;2022-11-20T08:51:05;4.70;99.90
10692;DHT22;5396;50.950;6.988;2022-11-20T08:53:31;4.70;99.90
10692;DHT22;5396;50.950;6.988;2022-11-20T08:55:57;4.80;99.90
10692;DHT22;5396;50.950;6.988;2022-11-20T08:58:23;4.90;99.90
10692;DHT22;5396;50.950;6.988;2022-11-20T09:00:49;4.90;99.90
10692;DHT22;5396;50.950;6.988;2022-11-20T09:03:15;4.90;99.90
10692;DHT22;5396;50.950;6.988;2022-11-20T09:05:40;4.90;99.90
10692;DHT22;5396;50.950;6.988;2022-11-20T09:08:06;4.90;99.90
10692;DHT22;5396;50.950;6.988;2022-11-20T09:10:31;4.90;99.90
10692;DHT22;5396;50.950;6.988;2022-11-20T09:12:57;4.90;99.90
10692;DHT22;5396;50.950;6.988;2022-11-20T09:15:24;4.90;99.90
10692;DHT22;5396;50.950;6.988;2022-11-20T09:17:56;4.90;99.90
10692;DHT22;5396;50.950;6.988;2022-11-20T09:20:23;4.90;99.90
10692;DHT22;5396;50.950;6.988;2022-11-20T09:22:49;5.00;99.90
10692;DHT22;5396;50.950;6.988;2022-11-20T09:25:15;5.00;99.90
10692;DHT22;5396;50.950;6.988;2022-11-20T09:27:40;5.00;99.90
10692;DHT22;5396;50.950;6.988;2022-11-20T09:30:12;5.00;99.90
10692;DHT22;5396;50.950;6.988;2022-11-20T09:32:42;5.00;99.90
10692;DHT22;5396;50.950;6.988;2022-11-20T09:35:08;5.00;99.90
10692;DHT22;5396;50.950;6.988;2022-11-20T09:37:34;5.10;99.90
10692;DHT22;5396;50.950;6.988;2022-11-20T09:40:00;5.20;99.90
10692;DHT22;5396;50.950;6.988;2022-11-20T09:42:42;5.20;99.90
10692;DHT22;5396;50.950;6.988;2022-11-20T09:45:17;5.30;99.90
10692;DHT22;5396;50.950;6.988;2022-11-20T09:47:57;5.40;99.90
10692;DHT22;5396;50.950;6.988;2022-11-20T09:50:36;5.50;99.90
10692;DHT22;5396;50.950;6.988;2022-11-20T09:55:47;5.60;99.90
10692;DHT22;5396;50.950;6.988;2022-11-20T09:58:29;5.50;99.90
10692;DHT22;5396;50.950;6.988;2022-11-20T10:01:08;5.50;99.90
10692;DHT22;5396;50.950;6.988;2022-11-20T10:03:50;5.60;99.90
10692;DHT22;5396;50.950;6.988;2022-11-20T10:06:18;5.70;99.90
10692;DHT22;5396;50.950;6.988;2022-11-20T10:09:04;5.80;99.90
10692;DHT22;5396;50.950;6.988;2022-11-20T10:21:12;5.70;99.90
10692;DHT22;5396;50.950;6.988;2022-11-20T10:30:12;5.60;99.90
10692;DHT22;5396;50.950;6.988;2022-11-20T10:32:40;5.40;99.90
10692;DHT22;5396;50.950;6.988;2022-11-20T10:35:19;5.40;99.90
10692;DHT22;5396;50.950;6.988;2022-11-20T10:37:49;5.40;99.90
10692;DHT22;5396;50.950;6.988;2022-11-20T10:43:01;5.50;99.90
10692;DHT22;5396;50.950;6.988;2022-11-20T10:45:31;5.50;99.90
10692;DHT22;5396;50.950;6.988;2022-11-20T10:48:44;5.60;99.90
10692;DHT22;5396;50.950;6.988;2022-11-20T10:56:32;5.80;99.90
10692;DHT22;5396;50.950;6.988;2022-11-20T11:02:01;5.70;99.90
10692;DHT22;5396;50.950;6.988;2022-11-20T11:04:34;5.70;99.90
10692;DHT22;5396;50.950;6.988;2022-11-20T11:07:09;5.70;99.90
10692;DHT22;5396;50.950;6.988;2022-11-20T11:09:41;5.70;99.90
10692;DHT22;5396;50.950;6.988;2022-11-20T11:12:09;5.70;99.90
10692;DHT22;5396;50.950;6.988;2022-11-20T11:14:44;5.80;99.90
10692;DHT22;5396;50.950;6.988;2022-11-20T11:17:28;5.80;99.90
10692;DHT22;5396;50.950;6.988;2022-11-20T11:20:14;5.70;99.90
10692;DHT22;5396;50.950;6.988;2022-11-20T11:22:55;5.70;99.90
10692;DHT22;5396;50.950;6.988;2022-11-20T11:25:35;5.70;99.90
10692;DHT22;5396;50.950;6.988;2022-11-20T11:28:02;5.70;99.90
10692;DHT22;5396;50.950;6.988;2022-11-20T11:30:39;5.70;99.90
10692;DHT22;5396;50.950;6.988;2022-11-20T11:33:08;5.80;99.90
10692;DHT22;5396;50.950;6.988;2022-11-20T11:35:44;5.90;99.90
10692;DHT22;5396;50.950;6.988;2022-11-20T11:38:15;5.90;99.90
10692;DHT22;5396;50.950;6.988;2022-11-20T11:40:42;5.90;99.90
10692;DHT22;5396;50.950;6.988;2022-11-20T11:43:21;5.90;99.90
10692;DHT22;5396;50.950;6.988;2022-11-20T11:49:00;5.80;99.90
10692;DHT22;5396;50.950;6.988;2022-11-20T11:51:41;5.80;99.90
10692;DHT22;5396;50.950;6.988;2022-11-20T11:54:21;5.90;99.90
10692;DHT22;5396;50.950;6.988;2022-11-20T11:56:49;5.90;99.90
10692;DHT22;5396;50.950;6.988;2022-11-20T12:10:43;5.90;99.90
10692;DHT22;5396;50.950;6.988;2022-11-20T12:15:58;5.90;99.90
10692;DHT22;5396;50.950;6.988;2022-11-20T12:18:25;5.90;99.90
10692;DHT22;5396;50.950;6.988;2022-11-20T12:23:32;5.80;99.90
10692;DHT22;5396;50.950;6.988;2022-11-20T12:26:05;5.90;99.90
10692;DHT22;5396;50.950;6.988;2022-11-20T12:28:44;5.90;99.90
10692;DHT22;5396;50.950;6.988;2022-11-20T12:33:57;5.90;99.90
10692;DHT22;5396;50.950;6.988;2022-11-20T12:39:35;5.90;99.90
10692;DHT22;5396;50.950;6.988;2022-11-20T12:59:05;6.10;99.90
10692;DHT22;5396;50.950;6.988;2022-11-20T13:01:43;6.20;99.90
10692;DHT22;5396;50.950;6.988;2022-11-20T13:06:39;6.50;99.90
10692;DHT22;5396;50.950;6.988;2022-11-20T13:09:10;6.60;99.90
10692;DHT22;5396;50.950;6.988;2022-11-20T13:12:06;6.60;99.90
10692;DHT22;5396;50.950;6.988;2022-11-20T13:19:50;6.70;99.90
10692;DHT22;5396;50.950;6.988;2022-11-20T13:22:25;6.70;99.90
10692;DHT22;5396;50.950;6.988;2022-11-20T13:24:51;6.80;99.90
10692;DHT22;5396;50.950;6.988;2022-11-20T13:27:20;6.80;99.90
10692;DHT22;5396;50.950;6.988;2022-11-20T13:29:58;6.80;99.90
10692;DHT22;5396;50.950;6.988;2022-11-20T13:32:26;6.80;99.90
10692;DHT22;5396;50.950;6.988;2022-11-20T13:35:04;6.70;99.90
10692;DHT22;5396;50.950;6.988;2022-11-20T13:37:37;6.70;99.90
10692;DHT22;5396;50.950;6.988;2022-11-20T13:42:43;6.70;99.90
10692;DHT22;5396;50.950;6.988;2022-11-20T13:45:27;6.70;99.90
10692;DHT22;5396;50.950;6.988;2022-11-20T13:47:55;6.70;99.90
10692;DHT22;5396;50.950;6.988;2022-11-20T13:53:32;6.50;99.90
10692;DHT22;5396;50.950;6.988;2022-11-20T13:56:23;6.50;99.90
10692;DHT22;5396;50.950;6.988;2022-11-20T13:59:05;6.50;99.90
10692;DHT22;5396;50.950;6.988;2022-11-20T14:01:37;6.50;99.90
10692;DHT22;5396;50.950;6.988;2022-11-20T14:04:09;6.60;99.90
10692;DHT22;5396;50.950;6.988;2022-11-20T14:06:44;6.60;99.90
10692;DHT22;5396;50.950;6.988;2022-11-20T14:09:12;6.60;99.90
10692;DHT22;5396;50.950;6.988;2022-11-20T14:11:46;6.50;99.90
10692;DHT22;5396;50.950;6.988;2022-11-20T14:14:20;6.50;99.90
10692;DHT22;5396;50.950;6.988;2022-11-20T14:16:47;6.50;99.90
10692;DHT22;5396;50.950;6.988;2022-11-20T14:21:46;6.40;99.90
10692;DHT22;5396;50.950;6.988;2022-11-20T14:24:13;6.40;99.90
10692;DHT22;5396;50.950;6.988;2022-11-20T14:26:43;6.50;99.90
10692;DHT22;5396;50.950;6.988;2022-11-20T14:29:17;6.50;99.90
10692;DHT22;5396;50.950;6.988;2022-11-20T14:31:45;6.40;99.90
10692;DHT22;5396;50.950;6.988;2022-11-20T14:34:20;6.40;99.90
10692;DHT22;5396;50.950;6.988;2022-11-20T14:36:47;6.50;99.90
10692;DHT22;5396;50.950;6.988;2022-11-20T14:39:25;6.50;99.90
10692;DHT22;5396;50.950;6.988;2022-11-20T14:41:52;6.40;99.90
10692;DHT22;5396;50.950;6.988;2022-11-20T14:44:20;6.40;99.90
10692;DHT22;5396;50.950;6.988;2022-11-20T14:46:46;6.40;99.90
10692;DHT22;5396;50.950;6.988;2022-11-20T14:49:12;6.40;99.90
10692;DHT22;5396;50.950;6.988;2022-11-20T14:51:39;6.40;99.90
10692;DHT22;5396;50.950;6.988;2022-11-20T14:54:19;6.40;99.90
10692;DHT22;5396;50.950;6.988;2022-11-20T14:57:03;6.40;99.90
10692;DHT22;5396;50.950;6.988;2022-11-20T14:59:33;6.40;99.90
10692;DHT22;5396;50.950;6.988;2022-11-20T15:02:03;6.40;99.90
10692;DHT22;5396;50.950;6.988;2022-11-20T15:04:30;6.50;99.90
10692;DHT22;5396;50.950;6.988;2022-11-20T15:06:57;6.40;99.90
10692;DHT22;5396;50.950;6.988;2022-11-20T15:09:24;6.40;99.90
10692;DHT22;5396;50.950;6.988;2022-11-20T15:12:01;6.40;99.90
10692;DHT22;5396;50.950;6.988;2022-11-20T15:14:28;6.40;99.90
10692;DHT22;5396;50.950;6.988;2022-11-20T15:16:54;6.40;99.90
10692;DHT22;5396;50.950;6.988;2022-11-20T15:19:22;6.40;99.90
10692;DHT22;5396;50.950;6.988;2022-11-20T15:21:48;6.30;99.90
10692;DHT22;5396;50.950;6.988;2022-11-20T15:24:14;6.30;99.90
10692;DHT22;5396;50.950;6.988;2022-11-20T15:26:40;6.30;99.90
10692;DHT22;5396;50.950;6.988;2022-11-20T15:29:15;6.20;99.90
10692;DHT22;5396;50.950;6.988;2022-11-20T15:31:44;6.10;99.90
10692;DHT22;5396;50.950;6.988;2022-11-20T15:34:14;6.10;99.90
10692;DHT22;5396;50.950;6.988;2022-11-20T15:36:41;6.00;99.90
10692;DHT22;5396;50.950;6.988;2022-11-20T15:39:07;6.00;99.90
10692;DHT22;5396;50.950;6.988;2022-11-20T15:41:36;6.00;99.90
10692;DHT22;5396;50.950;6.988;2022-11-20T15:44:03;6.00;99.90
10692;DHT22;5396;50.950;6.988;2022-11-20T15:46:31;6.00;99.90
10692;DHT22;5396;50.950;6.988;2022-11-20T15:49:04;6.00;99.90
10692;DHT22;5396;50.950;6.988;2022-11-20T15:51:36;6.00;99.90
10692;DHT22;5396;50.950;6.988;2022-11-20T15:54:16;6.00;99.90
10692;DHT22;5396;50.950;6.988;2022-11-20T15:56:57;6.00;99.90
10692;DHT22;5396;50.950;6.988;2022-11-20T15:59:24;6.00;99.90
10692;DHT22;5396;50.950;6.988;2022-11-20T16:01:50;6.00;99.90
10692;DHT22;5396;50.950;6.988;2022-11-20T16:04:16;6.00;99.90
10692;DHT22;5396;50.950;6.988;2022-11-20T16:06:42;6.10;99.90
10692;DHT22;5396;50.950;6.988;2022-11-20T16:09:08;6.10;99.90
10692;DHT22;5396;50.950;6.988;2022-11-20T16:11:35;6.00;99.90
10692;DHT22;5396;50.950;6.988;2022-11-20T16:14:04;6.10;99.90
10692;DHT22;5396;50.950;6.988;2022-11-20T16:16:49;6.10;99.90
10692;DHT22;5396;50.950;6.988;2022-11-20T16:19:15;6.10;99.90
10692;DHT22;5396;50.950;6.988;2022-11-20T16:21:41;6.10;99.90
10692;DHT22;5396;50.950;6.988;2022-11-20T16:24:09;6.10;99.90
10692;DHT22;5396;50.950;6.988;2022-11-20T16:26:36;6.10;99.90
10692;DHT22;5396;50.950;6.988;2022-11-20T16:29:03;6.10;99.90
10692;DHT22;5396;50.950;6.988;2022-11-20T16:31:30;6.10;99.90
10692;DHT22;5396;50.950;6.988;2022-11-20T16:33:58;6.10;99.90
10692;DHT22;5396;50.950;6.988;2022-11-20T16:36:25;6.10;99.90
10692;DHT22;5396;50.950;6.988;2022-11-20T16:38:59;6.10;99.90
10692;DHT22;5396;50.950;6.988;2022-11-20T16:41:26;6.20;99.90
10692;DHT22;5396;50.950;6.988;2022-11-20T16:43:56;6.20;99.90
10692;DHT22;5396;50.950;6.988;2022-11-20T16:46:24;6.20;99.90
10692;DHT22;5396;50.950;6.988;2022-11-20T16:48:54;6.20;99.90
10692;DHT22;5396;50.950;6.988;2022-11-20T16:51:20;6.20;99.90
10692;DHT22;5396;50.950;6.988;2022-11-20T16:53:46;6.20;99.90
10692;DHT22;5396;50.950;6.988;2022-11-20T16:56:15;6.20;99.90
10692;DHT22;5396;50.950;6.988;2022-11-20T16:58:42;6.30;99.90
10692;DHT22;5396;50.950;6.988;2022-11-20T17:01:10;6.30;99.90
10692;DHT22;5396;50.950;6.988;2022-11-20T17:03:40;6.30;99.90
10692;DHT22;5396;50.950;6.988;2022-11-20T17:06:19;6.30;99.90
10692;DHT22;5396;50.950;6.988;2022-11-20T17:08:45;6.30;99.90
10692;DHT22;5396;50.950;6.988;2022-11-20T17:11:15;6.20;99.90
10692;DHT22;5396;50.950;6.988;2022-11-20T17:13:41;6.30;99.90
10692;DHT22;5396;50.950;6.988;2022-11-20T17:16:10;6.20;99.90
10692;DHT22;5396;50.950;6.988;2022-11-20T17:18:36;6.30;99.90
10692;DHT22;5396;50.950;6.988;2022-11-20T17:21:02;6.30;99.90
10692;DHT22;5396;50.950;6.988;2022-11-20T17:23:34;6.30;99.90
10692;DHT22;5396;50.950;6.988;2022-11-20T17:26:08;6.30;99.90
10692;DHT22;5396;50.950;6.988;2022-11-20T17:28:35;6.30;99.90
10692;DHT22;5396;50.950;6.988;2022-11-20T17:31:03;6.30;99.90
10692;DHT22;5396;50.950;6.988;2022-11-20T17:33:29;6.30;99.90
10692;DHT22;5396;50.950;6.988;2022-11-20T17:35:55;6.20;99.90
10692;DHT22;5396;50.950;6.988;2022-11-20T17:38:21;6.20;99.90
10692;DHT22;5396;50.950;6.988;2022-11-20T17:40:47;6.20;99.90
10692;DHT22;5396;50.950;6.988;2022-11-20T17:43:12;6.20;99.90